Time;durP1;ratioP1;P1;durP2;ratioP2;P2;SDS_P1;SDS_P2;PMS_P1;PMS_P2;Temp;Humidity;BMP_temperature;BMP_pressure;BME280_temperature;BME280_humidity;BME280_pressure;Samples;Min_cycle;Max_cycle;Signal;HPM_P1;HPM_P2
2024/02/15 00:00:58;;;;;;;;;;;;;;;;;;5033830;28;19999;-69
2024/02/15 00:03:23;;;;;;;;;;;;;;;;;;5044456;23;20048;-65
2024/02/15 00:05:48;;;;;;;;;;;;;;;;;;5029054;28;19937;-65
2024/02/15 00:08:15;;;;;;;;;;;;;;;;;;5029185;28;19921;-65
2024/02/15 00:10:40;;;;;;;;;;;;;;;;;;5026379;28;19928;-65
2024/02/15 00:13:06;;;;;;;;;;;;;;;;;;5025270;28;20004;-65
2024/02/15 00:15:31;;;;;;;;;;;;;;;;;;5011055;28;20265;-65
2024/02/15 00:17:56;;;;;;;;;;;;;;;;;;5001938;28;19952;-65
2024/02/15 00:20:21;;;;;;;;;;;;;;;;;;4993145;28;19933;-66
2024/02/15 00:22:47;;;;;;;;;;;;;;;;;;4996538;28;19928;-66
2024/02/15 00:25:13;;;;;;;;;;;;;;;;;;5000052;28;19997;-65
2024/02/15 00:27:38;;;;;;;;;;;;;;;;;;5011215;28;19925;-65
2024/02/15 00:30:05;;;;;;;;;;;;;;;;;;5009772;28;20011;-65
2024/02/15 00:32:30;;;;;;;;;;;;;;;;;;5009346;28;20406;-65
2024/02/15 00:34:55;;;;;;;;;;;;;;;;;;5011643;28;20390;-66
2024/02/15 00:37:20;;;;;;;;;;;;;;;;;;5017119;28;19929;-65
2024/02/15 00:39:45;;;;;;;;;;;;;;;;;;5019502;28;20397;-65
2024/02/15 00:42:10;;;;;;;;;;;;;;;;;;5008907;28;19931;-66
2024/02/15 00:44:37;;;;;;;;;;;;;;;;;;5003656;28;19928;-65
2024/02/15 00:47:02;;;;;;;;;;;;;;;;;;5015422;28;19926;-65
2024/02/15 00:49:27;;;;;;;;;;;;;;;;;;5009615;28;19922;-65
2024/02/15 00:51:52;;;;;;;;;;;;;;;;;;4988370;28;19925;-65
2024/02/15 00:54:18;;;;;;;;;;;;;;;;;;5008724;28;19951;-66
2024/02/15 00:56:43;;;;;;;;;;;;;;;;;;5009069;28;20313;-65
2024/02/15 00:59:08;;;;;;;;;;;;;;;;;;5008927;28;20020;-65
2024/02/15 01:01:33;;;;;;;;;;;;;;;;;;5007823;28;19929;-65
2024/02/15 01:03:58;;;;;;;;;;;;;;;;;;5013024;28;19933;-65
2024/02/15 01:06:23;;;;;;;;;;;;;;;;;;5008269;28;19925;-66
2024/02/15 01:08:48;;;;;;;;;;;;;;;;;;5008426;28;20312;-65
2024/02/15 01:11:13;;;;;;;;;;;;;;;;;;5007634;28;19929;-66
2024/02/15 01:13:38;;;;;;;;;;;;;;;;;;4996095;28;19929;-66
2024/02/15 01:16:04;;;;;;;;;;;;;;;;;;4971915;28;19917;-65
2024/02/15 01:18:29;;;;;;;;;;;;;;;;;;5018645;28;19928;-66
2024/02/15 01:20:54;;;;;;;;;;;;;;;;;;5011868;28;20277;-66
2024/02/15 01:23:20;;;;;;;;;;;;;;;;;;5013233;28;19983;-66
2024/02/15 01:25:45;;;;;;;;;;;;;;;;;;5008583;28;19968;-66
2024/02/15 01:28:11;;;;;;;;;;;;;;;;;;5008191;28;20426;-66
2024/02/15 01:30:36;;;;;;;;;;;;;;;;;;5008463;28;19922;-66
2024/02/15 01:33:01;;;;;;;;;;;;;;;;;;5008920;28;20052;-66
2024/02/15 01:35:26;;;;;;;;;;;;;;;;;;5002632;28;19922;-66
2024/02/15 01:37:52;;;;;;;;;;;;;;;;;;5000036;28;20016;-66
2024/02/15 01:40:17;;;;;;;;;;;;;;;;;;5007627;28;20073;-66
2024/02/15 01:42:42;;;;;;;;;;;;;;;;;;5015668;28;20970;-66
2024/02/15 01:45:09;;;;;;;;;;;;;;;;;;4976723;28;20297;-66
2024/02/15 01:47:35;;;;;;;;;;;;;;;;;;4993427;28;19986;-66
2024/02/15 01:50:00;;;;;;;;;;;;;;;;;;5020022;28;19949;-66
2024/02/15 01:52:25;;;;;;;;;;;;;;;;;;5007564;28;20356;-66
2024/02/15 01:54:50;;;;;;;;;;;;;;;;;;5011932;28;19978;-66
2024/02/15 01:57:15;;;;;;;;;;;;;;;;;;5013033;28;20373;-66
2024/02/15 01:59:41;;;;;;;;;;;;;;;;;;5015912;28;19968;-66
2024/02/15 02:02:06;;;;;;;;;;;;;;;;;;5007602;28;20005;-67
2024/02/15 02:04:31;;;;;;;;;;;;;;;;;;5007631;28;19921;-66
2024/02/15 02:06:59;;;;;;;;;;;;;;;;;;5008076;28;19929;-66
2024/02/15 02:09:24;;;;;;;;;;;;;;;;;;5006727;28;19921;-66
2024/02/15 02:11:50;;;;;;;;;;;;;;;;;;5006730;28;19925;-66
2024/02/15 02:14:15;;;;;;;;;;;;;;;;;;5007211;28;20384;-66
2024/02/15 02:16:41;;;;;;;;;;;;;;;;;;4991928;28;20377;-66
2024/02/15 02:19:08;;;;;;;;;;;;;;;;;;5013856;28;19932;-66
2024/02/15 02:21:35;;;;;;;;;;;;;;;;;;5006751;28;19922;-66
2024/02/15 02:24:00;;;;;;;;;;;;;;;;;;5008067;28;19936;-66
2024/02/15 02:26:25;;;;;;;;;;;;;;;;;;5007377;28;19925;-66
2024/02/15 02:28:50;;;;;;;;;;;;;;;;;;5007292;28;20309;-66
2024/02/15 02:31:16;;;;;;;;;;;;;;;;;;5007728;28;19917;-66
2024/02/15 02:33:41;;;;;;;;;;;;;;;;;;4999285;28;19922;-66
2024/02/15 02:36:09;;;;;;;;;;;;;;;;;;4994631;28;20452;-67
2024/02/15 02:38:34;;;;;;;;;;;;;;;;;;5005037;28;20443;-66
2024/02/15 02:40:59;;;;;;;;;;;;;;;;;;5008777;28;20394;-66
2024/02/15 02:43:24;;;;;;;;;;;;;;;;;;5007757;28;20132;-66
2024/02/15 02:45:49;;;;;;;;;;;;;;;;;;5008886;28;19921;-66
2024/02/15 02:48:15;;;;;;;;;;;;;;;;;;5006385;28;20293;-67
2024/02/15 02:50:40;;;;;;;;;;;;;;;;;;5005673;28;19933;-66
2024/02/15 02:53:05;;;;;;;;;;;;;;;;;;5009141;28;19926;-66
2024/02/15 02:55:30;;;;;;;;;;;;;;;;;;5009326;28;19921;-66
2024/02/15 02:57:55;;;;;;;;;;;;;;;;;;5009792;28;19921;-66
2024/02/15 03:00:21;;;;;;;;;;;;;;;;;;5007569;28;19922;-66
2024/02/15 03:02:46;;;;;;;;;;;;;;;;;;5007703;28;19921;-66
2024/02/15 03:05:11;;;;;;;;;;;;;;;;;;5008779;28;19925;-66
2024/02/15 03:07:36;;;;;;;;;;;;;;;;;;5013790;28;19922;-66
2024/02/15 03:10:04;;;;;;;;;;;;;;;;;;5008374;28;20147;-66
2024/02/15 03:12:29;;;;;;;;;;;;;;;;;;5017795;28;19921;-66
2024/02/15 03:14:55;;;;;;;;;;;;;;;;;;5007067;28;20013;-67
2024/02/15 03:17:20;;;;;;;;;;;;;;;;;;5007187;28;19956;-66
2024/02/15 03:19:45;;;;;;;;;;;;;;;;;;5013498;28;20404;-66
2024/02/15 03:22:13;;;;;;;;;;;;;;;;;;5006035;28;19918;-68
2024/02/15 03:24:39;;;;;;;;;;;;;;;;;;5007662;28;19925;-66
2024/02/15 03:27:04;;;;;;;;;;;;;;;;;;5014366;28;19975;-66
2024/02/15 03:29:30;;;;;;;;;;;;;;;;;;5010015;28;20377;-66
2024/02/15 03:31:55;;;;;;;;;;;;;;;;;;5006599;28;20387;-66
2024/02/15 03:34:21;;;;;;;;;;;;;;;;;;5008964;28;19971;-66
2024/02/15 03:36:47;;;;;;;;;;;;;;;;;;5006763;28;20096;-66
2024/02/15 03:39:12;;;;;;;;;;;;;;;;;;5007040;28;19918;-66
2024/02/15 03:41:37;;;;;;;;;;;;;;;;;;5005097;28;20306;-66
2024/02/15 03:44:02;;;;;;;;;;;;;;;;;;4993237;28;19918;-67
2024/02/15 03:46:27;;;;;;;;;;;;;;;;;;4996142;28;19925;-66
2024/02/15 03:48:52;;;;;;;;;;;;;;;;;;5009339;28;20012;-66
2024/02/15 03:51:23;;;;;;;;;;;;;;;;;;5021364;28;19936;-66
2024/02/15 03:53:48;;;;;;;;;;;;;;;;;;5004817;28;20360;-66
2024/02/15 03:56:13;;;;;;;;;;;;;;;;;;5005950;28;19925;-66
2024/02/15 03:58:39;;;;;;;;;;;;;;;;;;5006041;28;20337;-66
2024/02/15 04:01:06;;;;;;;;;;;;;;;;;;5006286;28;19921;-66
2024/02/15 04:03:32;;;;;;;;;;;;;;;;;;5006444;28;19926;-66
2024/02/15 04:05:57;;;;;;;;;;;;;;;;;;4998742;28;20395;-66
2024/02/15 04:08:23;;;;;;;;;;;;;;;;;;5006424;28;19923;-66
2024/02/15 04:10:48;;;;;;;;;;;;;;;;;;5009900;28;19933;-66
2024/02/15 04:13:13;;;;;;;;;;;;;;;;;;5013352;28;20293;-66
2024/02/15 04:15:38;;;;;;;;;;;;;;;;;;5009789;28;19929;-66
2024/02/15 04:18:03;;;;;;;;;;;;;;;;;;4994874;28;20371;-66
2024/02/15 04:20:29;;;;;;;;;;;;;;;;;;5005556;28;19921;-66
2024/02/15 04:22:54;;;;;;;;;;;;;;;;;;5014463;28;19932;-66
2024/02/15 04:25:22;;;;;;;;;;;;;;;;;;5017186;28;19921;-65
2024/02/15 04:27:49;;;;;;;;;;;;;;;;;;5010210;28;20385;-66
2024/02/15 04:30:15;;;;;;;;;;;;;;;;;;5005693;28;20289;-66
2024/02/15 04:32:40;;;;;;;;;;;;;;;;;;4990679;28;20081;-66
2024/02/15 04:35:05;;;;;;;;;;;;;;;;;;5010208;28;19928;-66
2024/02/15 04:37:31;;;;;;;;;;;;;;;;;;5014846;28;19929;-66
2024/02/15 04:39:57;;;;;;;;;;;;;;;;;;5014201;28;19934;-66
2024/02/15 04:42:23;;;;;;;;;;;;;;;;;;5015143;28;19929;-67
2024/02/15 04:44:48;;;;;;;;;;;;;;;;;;5019311;28;20385;-66
2024/02/15 04:47:13;;;;;;;;;;;;;;;;;;5014694;28;19925;-66
2024/02/15 04:49:38;;;;;;;;;;;;;;;;;;4993628;28;19928;-66
2024/02/15 04:52:03;;;;;;;;;;;;;;;;;;5010183;28;19918;-67
2024/02/15 04:54:29;;;;;;;;;;;;;;;;;;5009359;28;20301;-66
2024/02/15 04:56:54;;;;;;;;;;;;;;;;;;5009184;28;19926;-66
2024/02/15 04:59:21;;;;;;;;;;;;;;;;;;5013384;28;19927;-66
2024/02/15 05:01:46;;;;;;;;;;;;;;;;;;5017524;28;19924;-66
2024/02/15 05:04:11;;;;;;;;;;;;;;;;;;5013474;28;19921;-67
2024/02/15 05:06:36;;;;;;;;;;;;;;;;;;5015899;28;20488;-66
2024/02/15 05:09:07;;;;;;;;;;;;;;;;;;5015481;28;19940;-66
2024/02/15 05:11:32;;;;;;;;;;;;;;;;;;5011461;28;20210;-66
2024/02/15 05:13:58;;;;;;;;;;;;;;;;;;5017952;28;19925;-66
2024/02/15 05:16:24;;;;;;;;;;;;;;;;;;5016676;28;19917;-66
2024/02/15 05:18:49;;;;;;;;;;;;;;;;;;5014299;28;19931;-66
2024/02/15 05:21:15;;;;;;;;;;;;;;;;;;4996926;28;19925;-66
2024/02/15 05:23:41;;;;;;;;;;;;;;;;;;5015562;28;20301;-66
2024/02/15 05:26:07;;;;;;;;;;;;;;;;;;5018031;28;19928;-67
2024/02/15 05:28:32;;;;;;;;;;;;;;;;;;5013676;28;19922;-66
2024/02/15 05:30:57;;;;;;;;;;;;;;;;;;5015380;28;19972;-66
2024/02/15 05:33:22;;;;;;;;;;;;;;;;;;5017027;28;19921;-66
2024/02/15 05:35:50;;;;;;;;;;;;;;;;;;5011450;28;20420;-66
2024/02/15 05:38:17;;;;;;;;;;;;;;;;;;5014367;28;19929;-67
2024/02/15 05:40:42;;;;;;;;;;;;;;;;;;5014782;28;20024;-66
2024/02/15 05:43:07;;;;;;;;;;;;;;;;;;5013087;28;19997;-66
2024/02/15 05:45:36;;;;;;;;;;;;;;;;;;5009638;28;20023;-66
2024/02/15 05:48:01;;;;;;;;;;;;;;;;;;5014755;28;20291;-68
2024/02/15 05:50:29;;;;;;;;;;;;;;;;;;5011828;28;19918;-67
2024/02/15 05:52:54;;;;;;;;;;;;;;;;;;5008164;28;19957;-66
2024/02/15 05:55:20;;;;;;;;;;;;;;;;;;5016484;28;19979;-66
2024/02/15 05:57:45;;;;;;;;;;;;;;;;;;5007867;28;19917;-66
2024/02/15 06:00:10;;;;;;;;;;;;;;;;;;5008366;28;19965;-67
2024/02/15 06:05:11;;;;;;;;;;;;;;;;;;5026537;28;20367;-68
2024/02/15 06:07:36;;;;;;;;;;;;;;;;;;5036798;28;19921;-68
2024/02/15 06:10:03;;;;;;;;;;;;;;;;;;5033990;28;19971;-68
2024/02/15 06:12:28;;;;;;;;;;;;;;;;;;5032676;28;19971;-68
2024/02/15 06:14:53;;;;;;;;;;;;;;;;;;5030694;28;19929;-68
2024/02/15 06:17:18;;;;;;;;;;;;;;;;;;5032494;28;19929;-68
2024/02/15 06:19:43;;;;;;;;;;;;;;;;;;5019428;28;19933;-67
2024/02/15 06:22:08;;;;;;;;;;;;;;;;;;5012257;28;20293;-69
2024/02/15 06:24:34;;;;;;;;;;;;;;;;;;5026802;28;19921;-68
2024/02/15 06:26:59;;;;;;;;;;;;;;;;;;5017802;28;20296;-68
2024/02/15 06:40:20;;;;;;;;;;;;;;;;;;5026673;28;19931;-68
2024/02/15 06:42:45;;;;;;;;;;;;;;;;;;5027009;28;20035;-68
2024/02/15 06:45:13;;;;;;;;;;;;;;;;;;5033675;28;20352;-68
2024/02/15 06:47:38;;;;;;;;;;;;;;;;;;5019339;28;19921;-68
2024/02/15 06:50:03;;;;;;;;;;;;;;;;;;5024723;28;19975;-68
2024/02/15 06:52:28;;;;;;;;;;;;;;;;;;5029900;28;19921;-68
2024/02/15 06:54:54;;;;;;;;;;;;;;;;;;5032254;28;19944;-68
2024/02/15 06:57:20;;;;;;;;;;;;;;;;;;5029938;28;19931;-68
2024/02/15 06:59:46;;;;;;;;;;;;;;;;;;5029367;28;20389;-68
2024/02/15 07:02:12;;;;;;;;;;;;;;;;;;5036257;28;20632;-68
2024/02/15 07:04:37;;;;;;;;;;;;;;;;;;5030197;28;19996;-68
2024/02/15 07:07:03;;;;;;;;;;;;;;;;;;5008972;28;19975;-68
2024/02/15 07:09:28;;;;;;;;;;;;;;;;;;5020865;28;19983;-68
2024/02/15 07:11:53;;;;;;;;;;;;;;;;;;5027485;28;20020;-68
2024/02/15 07:14:19;;;;;;;;;;;;;;;;;;5018555;28;19963;-68
2024/02/15 07:16:44;;;;;;;;;;;;;;;;;;5026050;28;19921;-68
2024/02/15 07:19:09;;;;;;;;;;;;;;;;;;5025566;28;20405;-68
2024/02/15 07:21:34;;;;;;;;;;;;;;;;;;5025611;28;20043;-68
2024/02/15 07:24:00;;;;;;;;;;;;;;;;;;5008981;28;19921;-67
2024/02/15 07:26:25;;;;;;;;;;;;;;;;;;5021016;28;19929;-68
2024/02/15 07:28:52;;;;;;;;;;;;;;;;;;5044417;28;19929;-68
2024/02/15 07:31:17;;;;;;;;;;;;;;;;;;5025808;28;19926;-69
2024/02/15 07:33:45;;;;;;;;;;;;;;;;;;5019795;28;20163;-67
2024/02/15 07:36:10;;;;;;;;;;;;;;;;;;5021882;28;19928;-67
2024/02/15 07:38:35;;;;;;;;;;;;;;;;;;5011142;28;19922;-67
2024/02/15 07:41:00;;;;;;;;;;;;;;;;;;5032711;28;19928;-67
2024/02/15 07:43:26;;;;;;;;;;;;;;;;;;5027152;28;19921;-67
2024/02/15 07:45:51;;;;;;;;;;;;;;;;;;5025737;28;19917;-66
2024/02/15 07:48:16;;;;;;;;;;;;;;;;;;5020000;28;20293;-66
2024/02/15 07:50:43;;;;;;;;;;;;;;;;;;5020754;28;19921;-66
2024/02/15 07:53:10;;;;;;;;;;;;;;;;;;5026737;28;20316;-66
2024/02/15 07:55:35;;;;;;;;;;;;;;;;;;5025144;28;19925;-66
2024/02/15 07:58:01;;;;;;;;;;;;;;;;;;5004027;28;19917;-67
2024/02/15 08:00:27;;;;;;;;;;;;;;;;;;5025754;28;20360;-67
2024/02/15 08:02:53;;;;;;;;;;;;;;;;;;5027451;28;19923;-67
2024/02/15 08:05:18;;;;;;;;;;;;;;;;;;5025307;28;20359;-66
2024/02/15 08:07:49;;;;;;;;;;;;;;;;;;5029656;28;19955;-66
2024/02/15 08:10:14;;;;;;;;;;;;;;;;;;5025818;28;20029;-66
2024/02/15 08:12:40;;;;;;;;;;;;;;;;;;5030485;28;20015;-67
2024/02/15 08:15:05;;;;;;;;;;;;;;;;;;5002426;28;20001;-67
2024/02/15 08:17:30;;;;;;;;;;;;;;;;;;5027473;28;19925;-67
2024/02/15 08:19:55;;;;;;;;;;;;;;;;;;5030989;28;19922;-67
2024/02/15 08:22:23;;;;;;;;;;;;;;;;;;5013440;28;19928;-66
2024/02/15 08:24:48;;;;;;;;;;;;;;;;;;5031105;28;19917;-66
2024/02/15 08:27:16;;;;;;;;;;;;;;;;;;5030764;28;19951;-68
2024/02/15 08:29:41;;;;;;;;;;;;;;;;;;5030164;28;19917;-68
2024/02/15 08:32:07;;;;;;;;;;;;;;;;;;5027589;28;19929;-69
2024/02/15 08:34:33;;;;;;;;;;;;;;;;;;5029990;28;19917;-68
2024/02/15 08:36:58;;;;;;;;;;;;;;;;;;5029642;28;19924;-68
2024/02/15 08:39:23;;;;;;;;;;;;;;;;;;5029882;28;19966;-69
2024/02/15 08:41:48;;;;;;;;;;;;;;;;;;5029691;28;20016;-68
2024/02/15 08:44:15;;;;;;;;;;;;;;;;;;5028396;28;19917;-68
2024/02/15 08:46:41;;;;;;;;;;;;;;;;;;5019932;28;20084;-68
2024/02/15 08:49:06;;;;;;;;;;;;;;;;;;5029414;28;19924;-68
2024/02/15 08:51:32;;;;;;;;;;;;;;;;;;5030525;28;19924;-68
2024/02/15 08:53:57;;;;;;;;;;;;;;;;;;5029643;28;19917;-69
2024/02/15 08:56:25;;;;;;;;;;;;;;;;;;5034072;28;19979;-68
2024/02/15 08:58:50;;;;;;;;;;;;;;;;;;5030033;28;20360;-68
2024/02/15 09:01:15;;;;;;;;;;;;;;;;;;5016479;28;20301;-68
2024/02/15 09:03:40;;;;;;;;;;;;;;;;;;5029349;28;19921;-68
2024/02/15 09:06:07;;;;;;;;;;;;;;;;;;5027821;28;19921;-68
2024/02/15 09:08:32;;;;;;;;;;;;;;;;;;5029955;28;19928;-69
2024/02/15 09:10:58;;;;;;;;;;;;;;;;;;5023506;28;19925;-68
2024/02/15 09:13:23;;;;;;;;;;;;;;;;;;5029316;28;20393;-68
2024/02/15 09:15:48;;;;;;;;;;;;;;;;;;5028983;28;20284;-69
2024/02/15 09:18:13;;;;;;;;;;;;;;;;;;5020400;28;19966;-69
2024/02/15 09:20:44;;;;;;;;;;;;;;;;;;5027691;28;20165;-69
2024/02/15 09:23:11;;;;;;;;;;;;;;;;;;5009147;28;20206;-68
2024/02/15 09:25:36;;;;;;;;;;;;;;;;;;5027691;28;20518;-68
2024/02/15 09:28:01;;;;;;;;;;;;;;;;;;5026565;28;20247;-68
2024/02/15 09:30:27;;;;;;;;;;;;;;;;;;5027913;28;19921;-68
2024/02/15 09:32:53;;;;;;;;;;;;;;;;;;5028403;28;20209;-67
2024/02/15 09:35:18;;;;;;;;;;;;;;;;;;5028443;28;20012;-68
2024/02/15 09:37:43;;;;;;;;;;;;;;;;;;5009334;28;19925;-68
2024/02/15 09:40:10;;;;;;;;;;;;;;;;;;5024399;28;20422;-68
2024/02/15 09:42:35;;;;;;;;;;;;;;;;;;5028594;28;20364;-68
2024/02/15 09:45:01;;;;;;;;;;;;;;;;;;5027809;28;19917;-68
2024/02/15 09:47:27;;;;;;;;;;;;;;;;;;5014285;28;19921;-68
2024/02/15 09:49:52;;;;;;;;;;;;;;;;;;5028660;28;19917;-67
2024/02/15 09:52:17;;;;;;;;;;;;;;;;;;5028058;28;19940;-68
2024/02/15 09:54:45;;;;;;;;;;;;;;;;;;5028477;28;20301;-68
2024/02/15 09:57:11;;;;;;;;;;;;;;;;;;5027715;28;19917;-67
2024/02/15 09:59:36;;;;;;;;;;;;;;;;;;5026251;28;19948;-67
2024/02/15 10:02:01;;;;;;;;;;;;;;;;;;5027707;28;20050;-66
2024/02/15 10:04:26;;;;;;;;;;;;;;;;;;5027510;28;19987;-66
2024/02/15 10:06:51;;;;;;;;;;;;;;;;;;5028148;28;19917;-66
2024/02/15 10:09:16;;;;;;;;;;;;;;;;;;5027972;28;19925;-67
2024/02/15 10:11:41;;;;;;;;;;;;;;;;;;5014549;28;19918;-67
2024/02/15 10:14:09;;;;;;;;;;;;;;;;;;5027072;28;19917;-67
2024/02/15 10:16:35;;;;;;;;;;;;;;;;;;5025555;28;19921;-66
2024/02/15 10:19:00;;;;;;;;;;;;;;;;;;5026784;28;19927;-69
2024/02/15 10:21:26;;;;;;;;;;;;;;;;;;5024459;28;19925;-68
2024/02/15 10:23:51;;;;;;;;;;;;;;;;;;5021907;28;19979;-69
2024/02/15 10:26:16;;;;;;;;;;;;;;;;;;5027320;28;20050;-66
2024/02/15 10:28:41;;;;;;;;;;;;;;;;;;5027813;28;19917;-66
2024/02/15 10:31:06;;;;;;;;;;;;;;;;;;5026452;28;20012;-66
2024/02/15 10:33:31;;;;;;;;;;;;;;;;;;5026782;28;20399;-69
2024/02/15 10:35:56;;;;;;;;;;;;;;;;;;5026843;28;19924;-66
2024/02/15 10:38:21;;;;;;;;;;;;;;;;;;5025708;28;19925;-69
2024/02/15 10:40:47;;;;;;;;;;;;;;;;;;5023065;28;20154;-69
2024/02/15 10:43:13;;;;;;;;;;;;;;;;;;5024855;28;19921;-67
2024/02/15 10:45:38;;;;;;;;;;;;;;;;;;5024710;28;19932;-67
2024/02/15 10:48:04;;;;;;;;;;;;;;;;;;5008269;28;19917;-67
2024/02/15 10:50:29;;;;;;;;;;;;;;;;;;5026877;28;19921;-66
2024/02/15 10:52:55;;;;;;;;;;;;;;;;;;5017539;28;19925;-67
2024/02/15 10:55:20;;;;;;;;;;;;;;;;;;5026617;28;19917;-67
2024/02/15 10:57:45;;;;;;;;;;;;;;;;;;5008658;28;19917;-68
2024/02/15 11:00:11;;;;;;;;;;;;;;;;;;5008779;28;19932;-68
2024/02/15 11:02:36;;;;;;;;;;;;;;;;;;5026323;28;19921;-68
2024/02/15 11:05:03;;;;;;;;;;;;;;;;;;5025282;28;19921;-68
2024/02/15 11:07:28;;;;;;;;;;;;;;;;;;5018887;28;19917;-68
2024/02/15 11:09:53;;;;;;;;;;;;;;;;;;5026369;28;19979;-67
2024/02/15 11:12:19;;;;;;;;;;;;;;;;;;5022656;28;19921;-67
2024/02/15 11:14:44;;;;;;;;;;;;;;;;;;5020738;28;19921;-69
2024/02/15 11:17:13;;;;;;;;;;;;;;;;;;5025884;28;20119;-70
2024/02/15 11:19:41;;;;;;;;;;;;;;;;;;5026060;28;20077;-69
2024/02/15 11:22:09;;;;;;;;;;;;;;;;;;5025353;28;19917;-69
2024/02/15 11:24:37;;;;;;;;;;;;;;;;;;5025929;28;19923;-69
2024/02/15 11:27:02;;;;;;;;;;;;;;;;;;5025705;28;20314;-71
2024/02/15 11:29:27;;;;;;;;;;;;;;;;;;5026014;28;19928;-70
2024/02/15 11:31:52;;;;;;;;;;;;;;;;;;5012367;28;19924;-69
2024/02/15 11:34:17;;;;;;;;;;;;;;;;;;5025239;28;19924;-69
2024/02/15 11:36:43;;;;;;;;;;;;;;;;;;5025585;28;19945;-69
2024/02/15 11:39:09;;;;;;;;;;;;;;;;;;5025587;28;20035;-69
2024/02/15 11:41:37;;;;;;;;;;;;;;;;;;5012830;28;20404;-69
2024/02/15 11:44:03;;;;;;;;;;;;;;;;;;5029475;28;20395;-69
2024/02/15 11:46:32;;;;;;;;;;;;;;;;;;5030352;28;20031;-69
2024/02/15 11:48:58;;;;;;;;;;;;;;;;;;5031162;28;20246;-69
2024/02/15 11:51:23;;;;;;;;;;;;;;;;;;5029483;28;19928;-69
2024/02/15 11:53:49;;;;;;;;;;;;;;;;;;5022332;28;19921;-69
2024/02/15 11:56:15;;;;;;;;;;;;;;;;;;5028516;28;19932;-69
2024/02/15 11:58:52;;;;;;;;;;;;;;;;;;5029751;28;19925;-69
2024/02/15 12:20:24;;;;;;;;;;;;;;;;;;5034863;28;20444;-83
2024/02/15 12:22:50;;;;;;;;;;;;;;;;;;5035629;28;20374;-81
2024/02/15 12:25:16;;;;;;;;;;;;;;;;;;5050438;28;19917;-82
2024/02/15 12:27:42;;;;;;;;;;;;;;;;;;5035467;28;19921;-82
2024/02/15 12:30:08;;;;;;;;;;;;;;;;;;5033956;28;19960;-84
2024/02/15 12:32:33;;;;;;;;;;;;;;;;;;5024883;28;20035;-80
2024/02/15 12:34:58;;;;;;;;;;;;;;;;;;5031567;28;20468;-82
2024/02/15 12:37:23;;;;;;;;;;;;;;;;;;5026792;28;19970;-80
2024/02/15 12:39:49;;;;;;;;;;;;;;;;;;5031840;28;19921;-80
2024/02/15 12:42:14;;;;;;;;;;;;;;;;;;5031264;28;20406;-80
2024/02/15 12:44:41;;;;;;;;;;;;;;;;;;5031832;28;19948;-80
2024/02/15 12:47:06;;;;;;;;;;;;;;;;;;5031147;28;19929;-80
2024/02/15 12:49:32;;;;;;;;;;;;;;;;;;5032580;28;19928;-81
2024/02/15 12:51:57;;;;;;;;;;;;;;;;;;5033709;28;19925;-83
2024/02/15 12:54:22;;;;;;;;;;;;;;;;;;5033419;28;19921;-82
2024/02/15 12:56:53;;;;;;;;;;;;;;;;;;5033226;28;19925;-81
2024/02/15 12:59:23;;;;;;;;;;;;;;;;;;5032943;28;19968;-81
2024/02/15 13:01:48;;;;;;;;;;;;;;;;;;5032425;28;19956;-82
2024/02/15 13:04:15;;;;;;;;;;;;;;;;;;5031552;28;19925;-82
2024/02/15 13:06:40;;;;;;;;;;;;;;;;;;5047824;28;20260;-81
2024/02/15 13:09:06;;;;;;;;;;;;;;;;;;5047539;28;20417;-82
2024/02/15 13:11:32;;;;;;;;;;;;;;;;;;5027986;28;19917;-82
2024/02/15 13:13:57;;;;;;;;;;;;;;;;;;5019101;28;19928;-82
2024/02/15 13:16:23;;;;;;;;;;;;;;;;;;5031111;28;19921;-82
2024/02/15 13:18:48;;;;;;;;;;;;;;;;;;5031760;28;20327;-81
2024/02/15 13:21:14;;;;;;;;;;;;;;;;;;5032125;28;20299;-83
2024/02/15 13:23:39;;;;;;;;;;;;;;;;;;5030839;28;20469;-81
2024/02/15 13:26:04;;;;;;;;;;;;;;;;;;5030502;28;19987;-82
2024/02/15 13:28:30;;;;;;;;;;;;;;;;;;5030321;28;19995;-82
2024/02/15 13:30:56;;;;;;;;;;;;;;;;;;5030284;28;19992;-82
2024/02/15 13:33:21;;;;;;;;;;;;;;;;;;5030619;28;19975;-83
2024/02/15 13:35:47;;;;;;;;;;;;;;;;;;5028020;28;19936;-81
2024/02/15 13:38:22;;;;;;;;;;;;;;;;;;5025085;28;20023;-81
2024/02/15 13:40:49;;;;;;;;;;;;;;;;;;5026679;28;19928;-81
2024/02/15 13:43:16;;;;;;;;;;;;;;;;;;5031102;28;19932;-81
2024/02/15 13:45:41;;;;;;;;;;;;;;;;;;5045087;28;19925;-82
2024/02/15 13:48:07;;;;;;;;;;;;;;;;;;5029721;28;19924;-82
2024/02/15 13:50:32;;;;;;;;;;;;;;;;;;5029702;28;19924;-82
2024/02/15 13:52:58;;;;;;;;;;;;;;;;;;5034202;28;19921;-83
2024/02/15 13:55:25;;;;;;;;;;;;;;;;;;5032254;28;19928;-81
2024/02/15 13:57:50;;;;;;;;;;;;;;;;;;5031898;28;19932;-82
2024/02/15 14:00:21;;;;;;;;;;;;;;;;;;5031104;28;20217;-82
2024/02/15 14:02:47;;;;;;;;;;;;;;;;;;5023944;28;19925;-83
2024/02/15 14:05:12;;;;;;;;;;;;;;;;;;5029749;28;19925;-82
2024/02/15 14:07:37;;;;;;;;;;;;;;;;;;5021545;28;20247;-81
2024/02/15 14:10:02;;;;;;;;;;;;;;;;;;5030033;28;19939;-82
2024/02/15 14:12:27;;;;;;;;;;;;;;;;;;5030116;28;20374;-81
2024/02/15 14:14:52;;;;;;;;;;;;;;;;;;5025852;28;20013;-82
2024/02/15 14:17:18;;;;;;;;;;;;;;;;;;5030716;28;19921;-81
2024/02/15 14:19:43;;;;;;;;;;;;;;;;;;5031017;28;19921;-81
2024/02/15 14:22:09;;;;;;;;;;;;;;;;;;5022814;28;20144;-83
2024/02/15 14:24:34;;;;;;;;;;;;;;;;;;5031256;28;19925;-81
2024/02/15 14:26:59;;;;;;;;;;;;;;;;;;5020587;28;19967;-81
2024/02/15 14:29:26;;;;;;;;;;;;;;;;;;5029406;28;19921;-81
2024/02/15 14:34:36;;;;;;;;;;;;;;;;;;5027551;28;20293;-82
2024/02/15 14:37:02;;;;;;;;;;;;;;;;;;5029228;28;19924;-81
2024/02/15 14:39:27;;;;;;;;;;;;;;;;;;5029615;28;19917;-82
2024/02/15 14:41:52;;;;;;;;;;;;;;;;;;5044212;28;19924;-82
2024/02/15 14:44:17;;;;;;;;;;;;;;;;;;5044046;28;20332;-81
2024/02/15 14:46:42;;;;;;;;;;;;;;;;;;5043567;28;19921;-82
2024/02/15 14:49:08;;;;;;;;;;;;;;;;;;5023952;28;20386;-81
2024/02/15 14:51:35;;;;;;;;;;;;;;;;;;5032446;28;19967;-81
2024/02/15 14:54:00;;;;;;;;;;;;;;;;;;5054400;28;19925;-82
2024/02/15 14:56:26;;;;;;;;;;;;;;;;;;5036771;28;20686;-82
2024/02/15 14:58:51;;;;;;;;;;;;;;;;;;5033465;28;19921;-82
2024/02/15 15:01:19;;;;;;;;;;;;;;;;;;5034596;28;19918;-81
2024/02/15 15:03:44;;;;;;;;;;;;;;;;;;5033412;28;20024;-83
2024/02/15 15:14:20;;;;;;;;;;;;;;;;;;5033041;28;20453;-83
2024/02/15 15:16:45;;;;;;;;;;;;;;;;;;5048155;28;20358;-82
2024/02/15 15:19:10;;;;;;;;;;;;;;;;;;5031937;28;19925;-80
2024/02/15 15:21:36;;;;;;;;;;;;;;;;;;5031162;28;19928;-81
2024/02/15 15:24:01;;;;;;;;;;;;;;;;;;5030440;28;20112;-82
2024/02/15 15:26:26;;;;;;;;;;;;;;;;;;5033537;28;19975;-81
2024/02/15 15:28:51;;;;;;;;;;;;;;;;;;5033755;28;20138;-82
2024/02/15 15:31:17;;;;;;;;;;;;;;;;;;5032175;28;19941;-81
2024/02/15 15:33:42;;;;;;;;;;;;;;;;;;5032251;28;19917;-82
2024/02/15 15:36:07;;;;;;;;;;;;;;;;;;5031418;28;19921;-81
2024/02/15 15:38:32;;;;;;;;;;;;;;;;;;5031206;28;19921;-81
2024/02/15 15:40:59;;;;;;;;;;;;;;;;;;5030460;28;20004;-81
2024/02/15 15:43:24;;;;;;;;;;;;;;;;;;5029726;28;20303;-82
2024/02/15 15:45:51;;;;;;;;;;;;;;;;;;5029242;28;19924;-81
2024/02/15 15:48:16;;;;;;;;;;;;;;;;;;5029866;28;20217;-81
2024/02/15 15:50:48;;;;;;;;;;;;;;;;;;5028103;28;20367;-80
2024/02/15 15:53:31;;;;;;;;;;;;;;;;;;5013988;28;19952;-83
2024/02/15 15:55:56;;;;;;;;;;;;;;;;;;5016119;28;19917;-84
2024/02/15 15:58:44;;;;;;;;;;;;;;;;;;5017395;28;19914;-82
2024/02/15 16:01:09;;;;;;;;;;;;;;;;;;5011396;28;19921;-82
2024/02/15 16:03:34;;;;;;;;;;;;;;;;;;5032359;28;19940;-89
2024/02/15 16:06:00;;;;;;;;;;;;;;;;;;5044362;28;19921;-82
2024/02/15 16:08:26;;;;;;;;;;;;;;;;;;5028699;28;19917;-81
2024/02/15 16:10:51;;;;;;;;;;;;;;;;;;5015849;28;19925;-81
2024/02/15 16:13:17;;;;;;;;;;;;;;;;;;5028282;28;20396;-82
2024/02/15 16:15:45;;;;;;;;;;;;;;;;;;5028929;28;20016;-84
2024/02/15 16:18:10;;;;;;;;;;;;;;;;;;5028498;28;19917;-82
2024/02/15 16:20:36;;;;;;;;;;;;;;;;;;5043201;28;19932;-83
2024/02/15 16:23:01;;;;;;;;;;;;;;;;;;5042775;28;19925;-81
2024/02/15 16:25:26;;;;;;;;;;;;;;;;;;5028175;28;20352;-82
2024/02/15 16:27:53;;;;;;;;;;;;;;;;;;5028378;28;19929;-81
2024/02/15 16:30:18;;;;;;;;;;;;;;;;;;5026052;28;19972;-82
2024/02/15 16:32:43;;;;;;;;;;;;;;;;;;5042169;28;19925;-80
2024/02/15 16:35:14;;;;;;;;;;;;;;;;;;5029854;28;19925;-82
2024/02/15 16:37:41;;;;;;;;;;;;;;;;;;5023378;28;20383;-83
2024/02/15 16:40:08;;;;;;;;;;;;;;;;;;5029565;28;19929;-81
2024/02/15 16:42:33;;;;;;;;;;;;;;;;;;5030136;28;20486;-80
2024/02/15 16:44:58;;;;;;;;;;;;;;;;;;5026081;28;19972;-81
2024/02/15 16:47:23;;;;;;;;;;;;;;;;;;5025724;28;20537;-81
2024/02/15 16:49:48;;;;;;;;;;;;;;;;;;5028891;28;20333;-81
2024/02/15 16:52:14;;;;;;;;;;;;;;;;;;5029908;28;19921;-83
2024/02/15 16:54:39;;;;;;;;;;;;;;;;;;5030646;28;19917;-81
2024/02/15 16:57:04;;;;;;;;;;;;;;;;;;5027013;28;19925;-80
2024/02/15 16:59:32;;;;;;;;;;;;;;;;;;5018640;28;19927;-81
2024/02/15 17:01:57;;;;;;;;;;;;;;;;;;5029951;28;19954;-80
2024/02/15 17:04:22;;;;;;;;;;;;;;;;;;5029253;28;19925;-80
2024/02/15 17:06:49;;;;;;;;;;;;;;;;;;5029845;28;19921;-80
2024/02/15 17:09:15;;;;;;;;;;;;;;;;;;5029924;28;19945;-83
2024/02/15 17:11:40;;;;;;;;;;;;;;;;;;5029744;28;19929;-81
2024/02/15 17:14:06;;;;;;;;;;;;;;;;;;5019739;28;19927;-82
2024/02/15 17:16:31;;;;;;;;;;;;;;;;;;5022500;28;19917;-81
2024/02/15 17:18:56;;;;;;;;;;;;;;;;;;5028322;28;19978;-81